createdAt,value
2016-05-17T00:00:56.344Z,1016.36
2016-05-17T00:01:56.300Z,1016.38
2016-05-17T00:02:56.240Z,1016.33
2016-05-17T00:03:56.195Z,1016.33
2016-05-17T00:04:56.136Z,1016.33
2016-05-17T00:05:59.310Z,1016.32
2016-05-17T00:06:59.203Z,1016.37
2016-05-17T00:07:59.206Z,1016.32
2016-05-17T00:08:55.943Z,1016.35
2016-05-17T00:09:55.883Z,1016.36
2016-05-17T00:10:55.839Z,1016.34
2016-05-17T00:11:58.795Z,1016.37
2016-05-17T00:12:58.752Z,1016.38
2016-05-17T00:13:55.691Z,1016.36
2016-05-17T00:14:55.632Z,1016.36
2016-05-17T00:15:55.587Z,1016.33
2016-05-17T00:16:55.543Z,1016.33
2016-05-17T00:17:58.499Z,1016.33
2016-05-17T00:18:55.454Z,1016.3
2016-05-17T00:19:55.380Z,1016.29
2016-05-17T00:20:55.335Z,1016.32
2016-05-17T00:21:55.291Z,1016.28
2016-05-17T00:22:58.247Z,1016.31
2016-05-17T00:23:55.187Z,1016.31
2016-05-17T00:24:55.143Z,1016.33
2016-05-17T00:25:55.286Z,1016.28
2016-05-17T00:26:55.039Z,1016.27
2016-05-17T00:27:57.995Z,1016.26
2016-05-17T00:28:54.935Z,1016.23
2016-05-17T00:29:54.875Z,1016.19
2016-05-17T00:30:57.846Z,1016.2
2016-05-17T00:31:54.770Z,1016.25
2016-05-17T00:32:54.743Z,1016.22
2016-05-17T00:33:54.683Z,1016.2
2016-05-17T00:34:54.638Z,1016.17
2016-05-17T00:35:54.578Z,1016.15
2016-05-17T00:36:57.550Z,1016.15
2016-05-17T00:37:54.475Z,1016.19
2016-05-17T00:38:54.431Z,1016.17
2016-05-17T00:39:54.386Z,1016.15
2016-05-17T00:40:54.327Z,1016.19
2016-05-17T00:41:54.282Z,1016.18
2016-05-17T00:42:57.238Z,1016.18
2016-05-17T00:43:54.178Z,1016.13
2016-05-17T00:44:54.134Z,1016.17
2016-05-17T00:45:54.075Z,1016.13
2016-05-17T00:46:57.046Z,1016.12
2016-05-17T00:47:57.002Z,1016.1
2016-05-17T00:48:53.927Z,1016.12
2016-05-17T00:49:53.882Z,1016.13
2016-05-17T00:50:53.821Z,1016.14
2016-05-17T00:51:53.777Z,1016.09
2016-05-17T00:52:53.734Z,1016.08
2016-05-17T00:53:53.690Z,1016.06
2016-05-17T00:54:53.629Z,1016.1
2016-05-17T00:55:56.585Z,1016.05
2016-05-17T00:56:56.541Z,1016.05
2016-05-17T00:57:53.481Z,1016.04
2016-05-17T00:58:53.437Z,1016.05
2016-05-17T00:59:53.378Z,1016.05
2016-05-17T01:00:53.334Z,1016.09
2016-05-17T01:01:56.290Z,1016.1
2016-05-17T01:02:53.229Z,1016.08
2016-05-17T01:03:53.170Z,1016.06
2016-05-17T01:04:53.125Z,1016.07
2016-05-17T01:05:53.065Z,1016.03
2016-05-17T01:06:53.271Z,1016.02
2016-05-17T01:07:55.993Z,1016.03
2016-05-17T01:08:52.917Z,1016.02
2016-05-17T01:09:52.873Z,1016.04
2016-05-17T01:10:52.829Z,1016.02
2016-05-17T01:12:01.800Z,1015.99
2016-05-17T01:12:55.756Z,1016
2016-05-17T01:13:52.681Z,1016.02
2016-05-17T01:14:52.621Z,1016.05
2016-05-17T01:15:55.577Z,1016.05
2016-05-17T01:16:52.517Z,1016.08
2016-05-17T01:17:55.692Z,1016.03
2016-05-17T01:18:52.413Z,1016.01
2016-05-17T01:19:52.369Z,1016.04
2016-05-17T01:20:52.325Z,1016.01
2016-05-17T01:21:55.280Z,1015.99
2016-05-17T01:22:55.236Z,1016.05
2016-05-17T01:23:52.176Z,1016.04
2016-05-17T01:24:52.116Z,1016.01
2016-05-17T01:25:52.073Z,1015.97
2016-05-17T01:26:55.029Z,1015.96
2016-05-17T01:27:51.968Z,1015.97
2016-05-17T01:28:51.909Z,1015.96
2016-05-17T01:29:51.864Z,1016
2016-05-17T01:30:51.820Z,1016.01
2016-05-17T01:31:51.760Z,1015.98
2016-05-17T01:32:51.716Z,1015.96
2016-05-17T01:33:51.657Z,1015.94
2016-05-17T01:34:51.643Z,1015.95
2016-05-17T01:35:51.771Z,1015.94
2016-05-17T01:36:51.524Z,1015.88
2016-05-17T01:37:51.667Z,1015.83
2016-05-17T01:38:51.483Z,1015.82
2016-05-17T01:39:51.360Z,1015.79
2016-05-17T01:40:51.316Z,1015.79
2016-05-17T01:41:51.256Z,1015.82
2016-05-17T01:42:51.212Z,1015.83
2016-05-17T01:43:51.152Z,1015.79
2016-05-17T01:44:51.124Z,1015.77
2016-05-17T01:45:51.063Z,1015.79
2016-05-17T01:46:51.004Z,1015.79
2016-05-17T01:47:50.960Z,1015.72
2016-05-17T01:48:50.915Z,1015.75
2016-05-17T01:49:53.872Z,1015.75
2016-05-17T01:50:53.811Z,1015.75
2016-05-17T01:51:53.768Z,1015.7
2016-05-17T01:52:50.708Z,1015.7
2016-05-17T01:53:50.663Z,1015.72
2016-05-17T01:54:50.604Z,1015.69
2016-05-17T01:55:50.559Z,1015.67
2016-05-17T01:56:53.531Z,1015.71
2016-05-17T01:57:50.455Z,1015.7
2016-05-17T01:58:50.396Z,1015.69
2016-05-17T01:59:50.351Z,1015.67
2016-05-17T02:00:53.510Z,1015.66
2016-05-17T02:01:53.263Z,1015.66
2016-05-17T02:02:50.203Z,1015.64
2016-05-17T02:03:50.159Z,1015.63
2016-05-17T02:04:50.098Z,1015.63
2016-05-17T02:05:50.056Z,1015.64
2016-05-17T02:06:53.198Z,1015.64
2016-05-17T02:07:49.951Z,1015.63
2016-05-17T02:08:49.907Z,1015.65
2016-05-17T02:09:49.847Z,1015.67
2016-05-17T02:10:49.803Z,1015.67
2016-05-17T02:11:49.759Z,1015.66
2016-05-17T02:12:49.902Z,1015.66
2016-05-17T02:13:49.639Z,1015.68
2016-05-17T02:14:49.595Z,1015.68
2016-05-17T02:15:52.550Z,1015.64
2016-05-17T02:16:52.506Z,1015.66
2016-05-17T02:17:49.447Z,1015.62
2016-05-17T02:18:49.386Z,1015.61
2016-05-17T02:19:49.344Z,1015.59
2016-05-17T02:20:49.282Z,1015.61
2016-05-17T02:21:49.238Z,1015.55
2016-05-17T02:22:49.194Z,1015.61
2016-05-17T02:23:49.197Z,1015.58
2016-05-17T02:24:49.091Z,1015.58
2016-05-17T02:25:49.046Z,1015.59
2016-05-17T02:26:48.987Z,1015.54
2016-05-17T02:27:48.943Z,1015.57
2016-05-17T02:28:48.898Z,1015.54
2016-05-17T02:29:48.838Z,1015.6
2016-05-17T02:30:48.794Z,1015.55
2016-05-17T02:31:48.735Z,1015.56
2016-05-17T02:32:48.690Z,1015.57
2016-05-17T02:33:48.631Z,1015.56
2016-05-17T02:34:48.851Z,1015.56
2016-05-17T02:35:48.589Z,1015.52
2016-05-17T02:36:48.559Z,1015.53
2016-05-17T02:37:48.438Z,1015.49
2016-05-17T02:38:48.394Z,1015.46
2016-05-17T02:39:48.412Z,1015.43
2016-05-17T02:40:48.290Z,1015.42
2016-05-17T02:41:48.230Z,1015.45
2016-05-17T02:42:48.201Z,1015.41
2016-05-17T02:43:48.125Z,1015.44
2016-05-17T02:44:48.081Z,1015.39
2016-05-17T02:45:48.022Z,1015.39
2016-05-17T02:46:47.978Z,1015.39
2016-05-17T02:47:47.934Z,1015.38
2016-05-17T02:48:48.077Z,1015.33
2016-05-17T02:49:50.829Z,1015.33
2016-05-17T02:50:47.785Z,1015.32
2016-05-17T02:51:47.726Z,1015.33
2016-05-17T02:52:47.682Z,1015.34
2016-05-17T02:53:47.638Z,1015.32
2016-05-17T02:54:47.780Z,1015.34
2016-05-17T02:55:50.533Z,1015.32
2016-05-17T02:56:47.474Z,1015.31
2016-05-17T02:57:50.429Z,1015.31
2016-05-17T02:58:50.369Z,1015.29
2016-05-17T02:59:47.326Z,1015.31
2016-05-17T03:00:47.282Z,1015.33
2016-05-17T03:01:47.221Z,1015.3
2016-05-17T03:02:50.177Z,1015.28
2016-05-17T03:03:47.117Z,1015.3
2016-05-17T03:04:50.073Z,1015.3
2016-05-17T03:05:47.013Z,1015.3
2016-05-17T03:06:46.969Z,1015.28
2016-05-17T03:07:46.909Z,1015.28
2016-05-17T03:08:46.865Z,1015.24
2016-05-17T03:09:46.805Z,1015.22
2016-05-17T03:10:46.761Z,1015.18
2016-05-17T03:11:46.717Z,1015.23
2016-05-17T03:12:46.657Z,1015.2
2016-05-17T03:13:46.613Z,1015.21
2016-05-17T03:14:46.569Z,1015.2
2016-05-17T03:15:46.508Z,1015.2
2016-05-17T03:16:49.465Z,1015.21
2016-05-17T03:17:46.405Z,1015.2
2016-05-17T03:18:46.361Z,1015.21
2016-05-17T03:19:46.317Z,1015.22
2016-05-17T03:20:46.257Z,1015.22
2016-05-17T03:21:49.415Z,1015.23
2016-05-17T03:22:49.168Z,1015.19
2016-05-17T03:23:46.108Z,1015.22
2016-05-17T03:24:46.049Z,1015.24
2016-05-17T03:25:46.004Z,1015.2
2016-05-17T03:26:48.960Z,1015.2
2016-05-17T03:27:45.916Z,1015.18
2016-05-17T03:28:45.841Z,1015.18
2016-05-17T03:29:45.843Z,1015.19
2016-05-17T03:30:45.752Z,1015.17
2016-05-17T03:31:48.707Z,1015.15
2016-05-17T03:32:45.649Z,1015.15
2016-05-17T03:33:45.605Z,1015.14
2016-05-17T03:34:45.545Z,1015.11
2016-05-17T03:35:45.501Z,1015.12
2016-05-17T03:36:48.440Z,1015.13
2016-05-17T03:37:45.396Z,1015.08
2016-05-17T03:38:45.336Z,1015.08
2016-05-17T03:39:48.293Z,1015.09
2016-05-17T03:40:45.248Z,1015.13
2016-05-17T03:41:45.189Z,1015.1
2016-05-17T03:42:45.144Z,1015.11
2016-05-17T03:43:45.334Z,1015.09
2016-05-17T03:44:45.040Z,1015.08
2016-05-17T03:45:44.980Z,1015.04
2016-05-17T03:46:44.936Z,1015.08
2016-05-17T03:47:44.891Z,1015.07
2016-05-17T03:48:44.833Z,1015.04
2016-05-17T03:49:44.788Z,1015.01
2016-05-17T03:50:47.743Z,1015.02
2016-05-17T03:51:44.684Z,1014.98
2016-05-17T03:52:44.624Z,1014.96
2016-05-17T03:53:47.596Z,1014.99
2016-05-17T03:54:47.535Z,1014.99
2016-05-17T03:55:44.476Z,1014.95
2016-05-17T03:56:44.432Z,1014.98
2016-05-17T03:57:44.372Z,1014.97
2016-05-17T03:58:47.327Z,1014.96
2016-05-17T03:59:44.268Z,1014.96
2016-05-17T04:00:47.240Z,1014.96
2016-05-17T04:01:44.163Z,1014.93
2016-05-17T04:02:44.120Z,1014.96
2016-05-17T04:03:44.059Z,1014.94
2016-05-17T04:04:44.016Z,1014.91
2016-05-17T04:05:43.972Z,1014.95
2016-05-17T04:06:43.912Z,1014.97
2016-05-17T04:07:46.868Z,1014.94
2016-05-17T04:08:43.807Z,1014.95
2016-05-17T04:09:43.764Z,1014.96
2016-05-17T04:10:43.703Z,1014.9
2016-05-17T04:11:43.659Z,1014.96
2016-05-17T04:12:43.600Z,1014.95
2016-05-17T04:13:43.556Z,1014.91
2016-05-17T04:14:43.511Z,1014.9
2016-05-17T04:15:43.451Z,1014.87
2016-05-17T04:16:46.408Z,1014.88
2016-05-17T04:17:46.363Z,1014.88
2016-05-17T04:18:43.303Z,1014.88
2016-05-17T04:19:43.243Z,1014.88
2016-05-17T04:20:43.200Z,1014.86
2016-05-17T04:21:43.156Z,1014.84
2016-05-17T04:22:43.299Z,1014.92
2016-05-17T04:23:43.052Z,1014.88
2016-05-17T04:24:42.991Z,1014.89
2016-05-17T04:25:42.947Z,1014.94
2016-05-17T04:26:42.887Z,1014.95
2016-05-17T04:27:45.843Z,1014.91
2016-05-17T04:28:42.783Z,1014.89
2016-05-17T04:29:42.739Z,1014.89
2016-05-17T04:30:45.695Z,1014.9
2016-05-17T04:31:42.635Z,1014.93
2016-05-17T04:32:42.591Z,1014.91
2016-05-17T04:33:42.531Z,1014.89
2016-05-17T04:34:45.487Z,1014.92
2016-05-17T04:35:42.442Z,1014.85
2016-05-17T04:36:42.383Z,1014.85
2016-05-17T04:37:42.340Z,1014.83
2016-05-17T04:38:42.279Z,1014.83
2016-05-17T04:39:42.235Z,1014.83
2016-05-17T04:40:42.190Z,1014.85
2016-05-17T04:41:42.131Z,1014.88
2016-05-17T04:42:42.273Z,1014.9
2016-05-17T04:43:42.042Z,1014.91
2016-05-17T04:44:41.967Z,1014.85
2016-05-17T04:45:41.923Z,1014.89
2016-05-17T04:46:41.864Z,1014.85
2016-05-17T04:47:41.819Z,1014.85
2016-05-17T04:48:41.759Z,1014.84
2016-05-17T04:49:41.714Z,1014.8
2016-05-17T04:50:41.670Z,1014.83
2016-05-17T04:51:41.829Z,1014.86
2016-05-17T04:52:41.567Z,1014.83
2016-05-17T04:53:41.508Z,1014.83
2016-05-17T04:54:41.463Z,1014.83
2016-05-17T04:55:41.403Z,1014.84
2016-05-17T04:56:41.358Z,1014.85
2016-05-17T04:57:41.299Z,1014.8
2016-05-17T04:58:44.271Z,1014.79
2016-05-17T04:59:41.413Z,1014.81
2016-05-17T05:00:41.151Z,1014.8
2016-05-17T05:01:41.169Z,1014.79
2016-05-17T05:02:41.047Z,1014.82
2016-05-17T05:03:44.018Z,1014.85
2016-05-17T05:04:40.943Z,1014.81
2016-05-17T05:05:40.898Z,1014.79
2016-05-17T05:06:40.854Z,1014.89
2016-05-17T05:07:40.794Z,1014.82
2016-05-17T05:08:43.765Z,1014.84
2016-05-17T05:09:40.712Z,1014.84
2016-05-17T05:10:40.710Z,1014.83
2016-05-17T05:11:40.694Z,1014.82
2016-05-17T05:12:43.692Z,1014.84
2016-05-17T05:13:40.691Z,1014.81
2016-05-17T05:14:40.661Z,1014.82
2016-05-17T05:15:40.632Z,1014.83
2016-05-17T05:16:40.588Z,1014.83
2016-05-17T05:17:43.574Z,1014.85
2016-05-17T05:18:40.515Z,1014.81
2016-05-17T05:19:40.481Z,1014.85
2016-05-17T05:20:43.458Z,1014.85
2016-05-17T05:21:40.388Z,1014.83
2016-05-17T05:22:40.349Z,1014.86
2016-05-17T05:23:40.309Z,1014.84
2016-05-17T05:24:40.253Z,1014.82
2016-05-17T05:25:40.211Z,1014.83
2016-05-17T05:26:40.170Z,1014.81
2016-05-17T05:27:40.111Z,1014.85
2016-05-17T05:28:40.069Z,1014.82
2016-05-17T05:29:40.011Z,1014.79
2016-05-17T05:30:40.170Z,1014.82
2016-05-17T05:31:39.907Z,1014.8
2016-05-17T05:32:39.864Z,1014.8
2016-05-17T05:33:40.009Z,1014.82
2016-05-17T05:34:39.761Z,1014.85
2016-05-17T05:35:39.906Z,1014.84
2016-05-17T05:36:42.674Z,1014.84
2016-05-17T05:37:39.615Z,1014.87
2016-05-17T05:38:39.555Z,1014.87
2016-05-17T05:39:39.511Z,1014.85
2016-05-17T05:40:39.467Z,1014.89
2016-05-17T05:41:39.407Z,1014.87
2016-05-17T05:42:39.348Z,1014.9
2016-05-17T05:43:39.304Z,1014.89
2016-05-17T05:44:39.274Z,1014.88
2016-05-17T05:45:39.199Z,1014.85
2016-05-17T05:46:39.171Z,1014.88
2016-05-17T05:47:39.111Z,1014.88
2016-05-17T05:48:39.052Z,1014.9
2016-05-17T05:49:39.006Z,1014.87
2016-05-17T05:50:38.962Z,1014.87
2016-05-17T05:51:38.903Z,1014.86
2016-05-17T05:52:38.859Z,1014.85
2016-05-17T05:53:38.799Z,1014.92
2016-05-17T05:54:41.756Z,1014.91
2016-05-17T05:55:41.711Z,1014.89
2016-05-17T05:56:38.651Z,1014.88
2016-05-17T05:57:38.607Z,1014.93
2016-05-17T05:58:41.562Z,1014.88
2016-05-17T05:59:41.503Z,1014.85
2016-05-17T06:00:41.459Z,1014.9
2016-05-17T06:01:38.602Z,1014.9
2016-05-17T06:02:38.386Z,1014.91
2016-05-17T06:03:38.295Z,1014.89
2016-05-17T06:04:38.250Z,1014.88
2016-05-17T06:05:38.206Z,1014.88
2016-05-17T06:06:38.162Z,1014.91
2016-05-17T06:07:38.086Z,1014.93
2016-05-17T06:08:41.058Z,1014.91
2016-05-17T06:09:37.999Z,1014.88
2016-05-17T06:10:37.938Z,1014.87
2016-05-17T06:11:37.894Z,1014.86
2016-05-17T06:12:37.834Z,1014.9
2016-05-17T06:13:40.806Z,1014.9
2016-05-17T06:14:37.746Z,1014.89
2016-05-17T06:15:37.890Z,1014.9
2016-05-17T06:16:37.642Z,1014.92
2016-05-17T06:17:37.598Z,1014.94
2016-05-17T06:18:37.757Z,1014.92
2016-05-17T06:19:37.493Z,1014.95
2016-05-17T06:20:37.435Z,1014.95
2016-05-17T06:21:37.406Z,1014.93
2016-05-17T06:22:37.345Z,1014.92
2016-05-17T06:23:40.333Z,1014.91
2016-05-17T06:24:37.257Z,1014.92
2016-05-17T06:25:37.198Z,1014.9
2016-05-17T06:26:37.138Z,1014.92
2016-05-17T06:27:37.079Z,1014.86
2016-05-17T06:28:37.033Z,1014.87
2016-05-17T06:29:36.990Z,1014.87
2016-05-17T06:30:36.945Z,1014.9
2016-05-17T06:31:36.886Z,1014.89
2016-05-17T06:32:39.842Z,1014.89
2016-05-17T06:33:39.798Z,1014.88
2016-05-17T06:34:36.738Z,1014.86
2016-05-17T06:35:36.694Z,1014.87
2016-05-17T06:36:36.634Z,1014.88
2016-05-17T06:37:36.589Z,1014.91
2016-05-17T06:38:36.530Z,1014.91
2016-05-17T06:39:36.485Z,1014.96
2016-05-17T06:40:36.441Z,1014.91
2016-05-17T06:41:36.382Z,1014.89
2016-05-17T06:42:36.338Z,1014.91
2016-05-17T06:43:36.293Z,1014.94
2016-05-17T06:44:36.233Z,1014.92
2016-05-17T06:45:36.189Z,1014.96
2016-05-17T06:46:36.129Z,1014.97
2016-05-17T06:47:36.085Z,1014.95
2016-05-17T06:48:45.056Z,1014.98
2016-05-17T06:49:35.981Z,1014.96
2016-05-17T06:50:35.937Z,1014.93
2016-05-17T06:51:35.893Z,1014.92
2016-05-17T06:52:35.832Z,1014.91
2016-05-17T06:53:35.773Z,1014.94
2016-05-17T06:54:35.729Z,1014.93
2016-05-17T06:55:35.684Z,1014.94
2016-05-17T06:56:35.640Z,1014.93
2016-05-17T06:57:35.580Z,1014.92
2016-05-17T06:58:35.553Z,1014.89
2016-05-17T06:59:35.476Z,1014.94
2016-05-17T07:00:35.433Z,1014.91
2016-05-17T07:01:35.388Z,1014.91
2016-05-17T07:02:35.328Z,1014.91
2016-05-17T07:03:35.300Z,1014.91
2016-05-17T07:04:35.224Z,1014.96
2016-05-17T07:05:35.180Z,1014.91
2016-05-17T07:06:35.136Z,1014.97
2016-05-17T07:07:35.077Z,1014.98
2016-05-17T07:08:35.032Z,1014.94
2016-05-17T07:09:34.988Z,1014.97
2016-05-17T07:10:34.927Z,1014.92
2016-05-17T07:11:34.883Z,1014.95
2016-05-17T07:12:34.824Z,1014.94
2016-05-17T07:13:34.796Z,1014.89
2016-05-17T07:14:37.751Z,1014.91
2016-05-17T07:15:34.894Z,1014.91
2016-05-17T07:16:34.632Z,1014.93
2016-05-17T07:17:34.588Z,1014.89
2016-05-17T07:19:37.484Z,1014.91
2016-05-17T07:20:34.673Z,1014.89
2016-05-17T07:21:35.004Z,1014.91
2016-05-17T07:22:34.351Z,1014.93
2016-05-17T07:23:34.494Z,1014.9
2016-05-17T07:24:34.248Z,1014.88
2016-05-17T07:25:34.203Z,1014.88
2016-05-17T07:26:34.159Z,1014.87
2016-05-17T07:27:34.115Z,1014.9
2016-05-17T07:28:34.039Z,1014.85
2016-05-17T07:29:34.011Z,1014.85
2016-05-17T07:30:33.934Z,1014.82
2016-05-17T07:31:33.891Z,1014.82
2016-05-17T07:32:33.847Z,1014.81
2016-05-17T07:33:33.803Z,1014.8
2016-05-17T07:34:33.742Z,1014.83
2016-05-17T07:35:36.714Z,1014.85
2016-05-17T07:36:33.655Z,1014.85
2016-05-17T07:37:36.610Z,1014.79
2016-05-17T07:38:33.550Z,1014.82
2016-05-17T07:39:33.506Z,1014.82
2016-05-17T07:40:36.461Z,1014.83
2016-05-17T07:41:36.402Z,1014.79
2016-05-17T07:42:33.342Z,1014.82
2016-05-17T07:43:33.298Z,1014.85
2016-05-17T07:44:33.254Z,1014.79
2016-05-17T07:45:36.209Z,1014.82
2016-05-17T07:46:33.166Z,1014.84
2016-05-17T07:47:33.106Z,1014.85
2016-05-17T07:48:36.062Z,1014.82
2016-05-17T07:49:36.018Z,1014.84
2016-05-17T07:50:32.988Z,1014.79
2016-05-17T07:51:32.945Z,1014.8
2016-05-17T07:52:32.869Z,1014.77
2016-05-17T07:53:32.809Z,1014.76
2016-05-17T07:54:32.796Z,1014.76
2016-05-17T07:55:32.705Z,1014.74
2016-05-17T07:56:35.677Z,1014.73
2016-05-17T07:57:32.632Z,1014.73
2016-05-17T07:58:35.620Z,1014.73
2016-05-17T07:59:35.529Z,1014.7
2016-05-17T08:00:32.469Z,1014.67
2016-05-17T08:01:32.409Z,1014.67
2016-05-17T08:02:32.365Z,1014.67
2016-05-17T08:03:32.320Z,1014.71
2016-05-17T08:04:32.276Z,1014.7
2016-05-17T08:05:32.216Z,1014.72
2016-05-17T08:06:35.173Z,1014.69
2016-05-17T08:07:32.113Z,1014.74
2016-05-17T08:08:32.068Z,1014.72
2016-05-17T08:09:32.025Z,1014.72
2016-05-17T08:10:31.980Z,1014.69
2016-05-17T08:11:31.936Z,1014.72
2016-05-17T08:12:31.877Z,1014.72
2016-05-17T08:13:31.863Z,1014.68
2016-05-17T08:14:31.788Z,1014.71
2016-05-17T08:15:31.743Z,1014.68
2016-05-17T08:16:31.699Z,1014.74
2016-05-17T08:17:31.640Z,1014.73
2016-05-17T08:18:31.595Z,1014.76
2016-05-17T08:19:31.551Z,1014.73
2016-05-17T08:20:31.491Z,1014.72
2016-05-17T08:21:31.696Z,1014.72
2016-05-17T08:22:31.388Z,1014.7
2016-05-17T08:23:31.359Z,1014.67
2016-05-17T08:24:31.299Z,1014.69
2016-05-17T08:25:34.254Z,1014.66
2016-05-17T08:26:31.195Z,1014.64
2016-05-17T08:27:31.151Z,1014.61
2016-05-17T08:28:31.106Z,1014.63
2016-05-17T08:29:31.062Z,1014.6
2016-05-17T08:30:31.018Z,1014.62
2016-05-17T08:31:30.974Z,1014.65
2016-05-17T08:32:32.305Z,1014.55
2016-05-17T08:33:30.854Z,1014.57
2016-05-17T08:34:30.811Z,1014.58
2016-05-17T08:35:30.767Z,1014.58
2016-05-17T08:36:30.722Z,1014.58
2016-05-17T08:37:30.865Z,1014.57
2016-05-17T08:38:30.634Z,1014.56
2016-05-17T08:39:30.574Z,1014.54
2016-05-17T08:40:30.530Z,1014.56
2016-05-17T08:41:30.470Z,1014.56
2016-05-17T08:42:30.832Z,1014.56
2016-05-17T08:43:33.397Z,1014.55
2016-05-17T08:44:30.337Z,1014.58
2016-05-17T08:45:30.293Z,1014.58
2016-05-17T08:46:30.249Z,1014.54
2016-05-17T08:47:30.189Z,1014.5
2016-05-17T08:48:30.144Z,1014.57
2016-05-17T08:49:30.085Z,1014.63
2016-05-17T08:50:30.040Z,1014.65
2016-05-17T08:51:30.168Z,1014.62
2016-05-17T08:52:30.093Z,1014.61
2016-05-17T08:53:29.908Z,1014.65
2016-05-17T08:54:29.849Z,1014.57
2016-05-17T08:55:29.804Z,1014.59
2016-05-17T08:56:29.807Z,1014.63
2016-05-17T08:57:29.716Z,1014.52
2016-05-17T08:58:29.687Z,1014.62
2016-05-17T08:59:29.628Z,1014.63
2016-05-17T09:00:29.631Z,1014.57
2016-05-17T09:01:29.523Z,1014.59
2016-05-17T09:02:29.511Z,1014.61
2016-05-17T09:03:29.434Z,1014.58
2016-05-17T09:04:29.578Z,1014.58
2016-05-17T09:05:29.550Z,1014.55
2016-05-17T09:06:29.302Z,1014.55
2016-05-17T09:07:29.617Z,1014.56
2016-05-17T09:08:29.198Z,1014.55
2016-05-17T09:09:29.155Z,1014.55
2016-05-17T09:10:29.314Z,1014.55
2016-05-17T09:11:29.050Z,1014.52
2016-05-17T09:12:29.006Z,1014.51
2016-05-17T09:13:33.446Z,1014.49
2016-05-17T09:14:31.919Z,1014.53
2016-05-17T09:15:28.874Z,1014.53
2016-05-17T09:16:31.814Z,1014.52
2016-05-17T09:17:28.769Z,1014.53
2016-05-17T09:18:28.725Z,1014.53
2016-05-17T09:19:28.681Z,1014.51
2016-05-17T09:20:28.621Z,1014.49
2016-05-17T09:21:28.593Z,1014.52
2016-05-17T09:22:28.533Z,1014.51
2016-05-17T09:23:31.489Z,1014.46
2016-05-17T09:24:28.476Z,1014.48
2016-05-17T09:25:28.385Z,1014.46
2016-05-17T09:26:28.357Z,1014.48
2016-05-17T09:27:28.296Z,1014.47
2016-05-17T09:28:28.456Z,1014.49
2016-05-17T09:29:28.209Z,1014.48
2016-05-17T09:30:28.164Z,1014.48
2016-05-17T09:31:28.120Z,1014.43
2016-05-17T09:32:28.279Z,1014.47
2016-05-17T09:33:28.032Z,1014.41
2016-05-17T09:34:30.987Z,1014.43
2016-05-17T09:35:27.928Z,1014.42
2016-05-17T09:36:27.915Z,1014.4
2016-05-17T09:37:27.886Z,1014.44
2016-05-17T09:38:27.873Z,1014.43
2016-05-17T09:39:27.751Z,1014.39
2016-05-17T09:40:27.706Z,1014.32
2016-05-17T09:41:27.662Z,1014.4
2016-05-17T09:42:30.603Z,1014.31
2016-05-17T09:43:27.574Z,1014.34
2016-05-17T09:44:27.733Z,1014.37
2016-05-17T09:45:27.469Z,1014.34
2016-05-17T09:46:27.425Z,1014.34
2016-05-17T09:47:27.382Z,1014.31
2016-05-17T09:48:27.319Z,1014.37
2016-05-17T09:49:27.290Z,1014.36
2016-05-17T09:50:27.293Z,1014.32
2016-05-17T09:51:27.202Z,1014.33
2016-05-17T09:52:27.158Z,1014.37
2016-05-17T09:53:27.099Z,1014.3
2016-05-17T09:54:27.070Z,1014.27
2016-05-17T09:55:27.056Z,1014.34
2016-05-17T09:56:26.950Z,1014.36
2016-05-17T09:57:26.907Z,1014.23
2016-05-17T09:58:26.877Z,1014.26
2016-05-17T09:59:26.818Z,1014.23
2016-05-17T10:00:26.976Z,1014.24
2016-05-17T10:01:26.713Z,1014.2
2016-05-17T10:02:26.701Z,1014.22
2016-05-17T10:03:29.643Z,1014.22
2016-05-17T10:04:26.596Z,1014.23
2016-05-17T10:05:26.553Z,1014.19
2016-05-17T10:06:26.508Z,1014.18
2016-05-17T10:07:26.589Z,1014.22
2016-05-17T10:08:26.404Z,1014.15
2016-05-17T10:09:26.360Z,1014.12
2016-05-17T10:10:26.487Z,1014.18
2016-05-17T10:11:26.334Z,1014.17
2016-05-17T10:12:26.258Z,1014.17
2016-05-17T10:13:26.184Z,1014.17
2016-05-17T10:14:26.123Z,1014.18
2016-05-17T10:15:26.080Z,1014.15
2016-05-17T10:16:26.036Z,1014.17
2016-05-17T10:17:26.006Z,1014.15
2016-05-17T10:18:25.947Z,1014.13
2016-05-17T10:19:25.919Z,1014.09
2016-05-17T10:20:25.921Z,1014.09
2016-05-17T10:21:25.814Z,1014.08
2016-05-17T10:22:25.755Z,1014.06
2016-05-17T10:23:25.710Z,1014.07
2016-05-17T10:24:25.869Z,1014.11
2016-05-17T10:25:25.637Z,1014.12
2016-05-17T10:26:28.580Z,1014.1
2016-05-17T10:27:25.533Z,1014.06
2016-05-17T10:28:25.489Z,1014.05
2016-05-17T10:29:25.430Z,1014.07
2016-05-17T10:30:25.401Z,1014.07
2016-05-17T10:31:25.372Z,1013.99
2016-05-17T10:32:25.297Z,1014.03
2016-05-17T10:33:25.253Z,1014.04
2016-05-17T10:34:25.224Z,1014.03
2016-05-17T10:35:25.165Z,1014.01
2016-05-17T10:36:25.589Z,1014.06
2016-05-17T10:37:25.309Z,1014.07
2016-05-17T10:38:25.048Z,1013.96
2016-05-17T10:39:24.987Z,1014
2016-05-17T10:40:24.959Z,1014.01
2016-05-17T10:41:24.900Z,1014.04
2016-05-17T10:42:24.871Z,1013.97
2016-05-17T10:43:24.811Z,1014.01
2016-05-17T10:44:27.783Z,1013.95
2016-05-17T10:45:27.926Z,1013.94
2016-05-17T10:46:24.678Z,1013.92
2016-05-17T10:47:24.712Z,1013.94
2016-05-17T10:48:24.575Z,1013.92
2016-05-17T10:49:27.546Z,1013.95
2016-05-17T10:50:27.595Z,1013.89
2016-05-17T10:51:24.942Z,1013.91
2016-05-17T10:52:24.836Z,1013.84
2016-05-17T10:53:24.353Z,1013.87
2016-05-17T10:54:27.513Z,1013.82
2016-05-17T10:55:24.249Z,1013.82
2016-05-17T10:56:24.221Z,1013.84
2016-05-17T10:57:24.302Z,1013.81
2016-05-17T10:58:24.132Z,1013.82
2016-05-17T10:59:27.104Z,1013.75
2016-05-17T11:00:24.185Z,1013.82
2016-05-17T11:01:33.018Z,1013.83
2016-05-17T11:02:24.174Z,1013.81
2016-05-17T11:03:23.880Z,1013.81
2016-05-17T11:04:26.867Z,1013.8
2016-05-17T11:05:23.823Z,1013.83
2016-05-17T11:06:23.748Z,1013.82
2016-05-17T11:07:23.765Z,1013.77
2016-05-17T11:08:23.675Z,1013.77
2016-05-17T11:09:23.662Z,1013.77
2016-05-17T11:10:23.571Z,1013.77
2016-05-17T11:11:23.605Z,1013.8
2016-05-17T11:12:23.483Z,1013.74
2016-05-17T11:13:23.625Z,1013.72
2016-05-17T11:14:23.394Z,1013.73
2016-05-17T11:15:26.350Z,1013.81
2016-05-17T11:16:23.508Z,1013.84
2016-05-17T11:17:23.246Z,1013.82
2016-05-17T11:18:23.202Z,1013.74
2016-05-17T11:19:23.189Z,1013.75
2016-05-17T11:20:23.130Z,1013.73
2016-05-17T11:21:23.086Z,1013.77
2016-05-17T11:22:26.040Z,1013.71
2016-05-17T11:23:25.980Z,1013.64
2016-05-17T11:24:25.937Z,1013.7
2016-05-17T11:25:22.877Z,1013.7
2016-05-17T11:26:22.833Z,1013.68
2016-05-17T11:27:22.805Z,1013.62
2016-05-17T11:28:25.760Z,1013.61
2016-05-17T11:29:22.700Z,1013.65
2016-05-17T11:30:22.656Z,1013.58
2016-05-17T11:31:22.612Z,1013.6
2016-05-17T11:32:22.568Z,1013.51
2016-05-17T11:33:25.524Z,1013.49
2016-05-17T11:34:25.479Z,1013.5
2016-05-17T11:35:25.435Z,1013.41
2016-05-17T11:36:22.391Z,1013.47
2016-05-17T11:37:22.471Z,1013.47
2016-05-17T11:38:22.505Z,1013.39
2016-05-17T11:39:22.259Z,1013.46
2016-05-17T11:40:22.198Z,1013.42
2016-05-17T11:41:22.154Z,1013.44
2016-05-17T11:42:22.110Z,1013.37
2016-05-17T11:43:22.066Z,1013.4
2016-05-17T11:44:22.022Z,1013.47
2016-05-17T11:45:22.071Z,1013.46
2016-05-17T11:46:21.917Z,1013.4
2016-05-17T11:47:21.936Z,1013.45
2016-05-17T11:48:21.845Z,1013.4
2016-05-17T11:49:21.800Z,1013.37
2016-05-17T11:50:24.803Z,1013.39
2016-05-17T11:51:21.713Z,1013.45
2016-05-17T11:52:22.230Z,1013.34
2016-05-17T11:53:21.608Z,1013.34
2016-05-17T11:54:21.564Z,1013.34
2016-05-17T11:55:21.519Z,1013.33
2016-05-17T11:56:21.476Z,1013.41
2016-05-17T11:57:21.432Z,1013.41
2016-05-17T11:58:21.606Z,1013.46
2016-05-17T11:59:21.344Z,1013.45
2016-05-17T12:00:21.331Z,1013.45
2016-05-17T12:01:21.254Z,1013.47
2016-05-17T12:02:24.210Z,1013.41
2016-05-17T12:03:21.151Z,1013.4
2016-05-17T12:04:21.123Z,1013.44
2016-05-17T12:05:21.062Z,1013.48
2016-05-17T12:06:21.019Z,1013.44
2016-05-17T12:07:20.974Z,1013.38
2016-05-17T12:08:20.929Z,1013.47